Time;durP1;ratioP1;P1;durP2;ratioP2;P2;SDS_P1;SDS_P2;PMS_P1;PMS_P2;Temp;Humidity;BMP_temperature;BMP_pressure;BME280_temperature;BME280_humidity;BME280_pressure;Samples;Min_cycle;Max_cycle;Signal;HPM_P1;HPM_P2
2023/04/21 00:01:11;;;;;;;34.10;24.13;;;9.70;99.90;;;;;;6242657;23;20031;-74
2023/04/21 00:03:37;;;;;;;34.88;25.38;;;9.70;99.90;;;;;;6244575;22;20000;-74
2023/04/21 00:06:08;;;;;;;38.70;27.47;;;9.60;99.90;;;;;;6243229;23;20038;-74
2023/04/21 00:08:39;;;;;;;36.00;26.07;;;9.60;99.90;;;;;;6242235;22;19997;-74
2023/04/21 00:11:07;;;;;;;40.45;29.05;;;9.60;99.90;;;;;;6242045;22;20003;-74
2023/04/21 00:13:34;;;;;;;38.83;28.87;;;9.60;99.90;;;;;;6241078;22;20051;-74
2023/04/21 00:16:01;;;;;;;42.93;29.67;;;9.60;99.90;;;;;;6242425;22;20008;-74
2023/04/21 00:18:27;;;;;;;38.70;28.53;;;9.50;99.90;;;;;;6241716;22;20071;-74
2023/04/21 00:20:52;;;;;;;43.87;31.60;;;9.50;99.90;;;;;;6242374;23;20031;-74
2023/04/21 00:23:18;;;;;;;35.40;27.40;;;9.50;99.90;;;;;;6242264;23;20004;-74
2023/04/21 00:25:43;;;;;;;43.42;30.92;;;9.50;99.90;;;;;;6244138;23;20008;-74
2023/04/21 00:28:09;;;;;;;46.73;30.87;;;9.50;99.90;;;;;;6243634;23;20084;-74
2023/04/21 00:30:34;;;;;;;37.53;28.08;;;9.50;99.90;;;;;;6243760;23;19996;-74
2023/04/21 00:33:00;;;;;;;41.38;31.48;;;9.50;99.90;;;;;;6243916;23;20044;-74
2023/04/21 00:35:26;;;;;;;45.03;31.23;;;9.50;99.90;;;;;;6243660;23;20000;-74
2023/04/21 00:37:51;;;;;;;48.93;35.70;;;9.50;99.90;;;;;;6244330;23;20409;-74
2023/04/21 00:40:17;;;;;;;44.95;30.67;;;9.50;99.90;;;;;;6243044;23;20466;-73
2023/04/21 00:42:42;;;;;;;46.97;32.80;;;9.50;99.90;;;;;;6242636;23;20043;-76
2023/04/21 00:45:08;;;;;;;44.83;32.60;;;9.50;99.90;;;;;;6243937;23;20001;-74
2023/04/21 00:47:34;;;;;;;44.80;32.42;;;9.50;99.90;;;;;;6243421;22;19996;-74
2023/04/21 00:50:00;;;;;;;51.53;33.83;;;9.50;99.90;;;;;;6244259;22;20008;-74
2023/04/21 00:52:28;;;;;;;51.15;33.92;;;9.50;99.90;;;;;;6243345;22;19996;-74
2023/04/21 00:54:54;;;;;;;39.03;29.53;;;9.50;99.90;;;;;;6243586;22;20074;-76
2023/04/21 00:57:20;;;;;;;52.93;34.93;;;9.50;99.90;;;;;;6243508;22;20012;-76
2023/04/21 00:59:45;;;;;;;42.70;30.25;;;9.50;99.90;;;;;;6244018;22;20689;-74
2023/04/21 01:02:13;;;;;;;48.57;32.40;;;9.50;99.90;;;;;;6243438;23;20035;-73
2023/04/21 01:04:39;;;;;;;50.70;34.53;;;9.50;99.90;;;;;;6242221;23;20483;-74
2023/04/21 01:07:06;;;;;;;54.55;34.70;;;9.50;99.90;;;;;;6243877;22;20008;-75
2023/04/21 01:09:32;;;;;;;37.70;27.75;;;9.50;99.90;;;;;;6243051;22;20337;-76
2023/04/21 01:12:07;;;;;;;50.53;34.67;;;9.50;99.90;;;;;;6243855;22;20006;-75
2023/04/21 01:14:33;;;;;;;53.07;35.63;;;9.50;99.90;;;;;;6243403;22;20068;-75
2023/04/21 01:16:59;;;;;;;43.22;31.15;;;9.50;99.90;;;;;;6242318;23;20505;-74
2023/04/21 01:19:29;;;;;;;53.78;36.70;;;9.50;99.90;;;;;;6243499;23;20028;-75
2023/04/21 01:21:59;;;;;;;46.47;32.40;;;9.50;99.90;;;;;;6242518;23;20007;-75
2023/04/21 01:24:38;;;;;;;44.13;32.23;;;9.50;99.90;;;;;;6243629;22;20028;-74
2023/04/21 01:27:09;;;;;;;41.88;29.70;;;9.60;99.90;;;;;;6251790;22;20015;-74
2023/04/21 01:29:35;;;;;;;54.00;35.05;;;9.60;99.90;;;;;;6251173;22;20004;-74
2023/04/21 01:32:09;;;;;;;49.77;34.87;;;9.60;99.90;;;;;;6243652;23;20020;-74
2023/04/21 01:34:35;;;;;;;52.22;34.28;;;9.60;99.90;;;;;;6241419;23;20008;-74
2023/04/21 01:37:01;;;;;;;52.63;35.53;;;9.60;99.90;;;;;;6243783;22;20441;-74
2023/04/21 01:39:27;;;;;;;49.57;34.53;;;9.60;99.90;;;;;;6242307;23;20000;-74
2023/04/21 01:41:54;;;;;;;55.17;37.30;;;9.70;99.90;;;;;;6243632;23;20056;-74
2023/04/21 01:44:20;;;;;;;48.55;32.72;;;9.70;99.90;;;;;;6242922;22;20004;-74
2023/04/21 01:46:45;;;;;;;51.77;34.20;;;9.70;99.90;;;;;;6243216;22;20065;-74
2023/04/21 01:49:11;;;;;;;58.88;36.28;;;9.70;99.90;;;;;;6242514;23;20068;-74
2023/04/21 01:51:36;;;;;;;54.05;35.53;;;9.70;99.90;;;;;;6241927;23;19996;-74
2023/04/21 01:54:02;;;;;;;53.08;34.33;;;9.70;99.90;;;;;;6240789;23;20368;-74
2023/04/21 01:56:27;;;;;;;53.00;35.05;;;9.70;99.90;;;;;;6241937;23;20012;-74
2023/04/21 01:58:53;;;;;;;53.92;36.63;;;9.80;99.90;;;;;;6243380;23;20000;-73
2023/04/21 02:01:18;;;;;;;49.85;33.13;;;9.80;99.90;;;;;;6242796;23;20000;-74
2023/04/21 02:03:44;;;;;;;53.63;34.85;;;9.80;99.90;;;;;;6241518;23;20008;-74
2023/04/21 02:06:10;;;;;;;50.60;36.08;;;9.90;99.90;;;;;;6241647;23;20078;-74
2023/04/21 02:08:36;;;;;;;48.40;33.83;;;9.90;99.90;;;;;;6242414;23;19996;-74
2023/04/21 02:11:02;;;;;;;44.50;31.90;;;9.90;99.90;;;;;;6243402;22;20024;-74
2023/04/21 02:13:27;;;;;;;47.17;32.53;;;9.90;99.90;;;;;;6242665;23;19996;-74
2023/04/21 02:15:53;;;;;;;48.97;32.22;;;9.90;99.90;;;;;;6243235;23;20008;-74
2023/04/21 02:18:19;;;;;;;47.30;33.33;;;9.90;99.90;;;;;;6242572;23;20330;-74
2023/04/21 02:20:44;;;;;;;49.53;33.00;;;9.80;99.90;;;;;;6243186;22;20010;-74
2023/04/21 02:23:10;;;;;;;44.80;31.90;;;9.90;99.90;;;;;;6241065;23;20388;-74
2023/04/21 02:25:35;;;;;;;47.97;33.40;;;9.80;99.90;;;;;;6242278;23;20016;-74
2023/04/21 02:28:01;;;;;;;43.08;31.70;;;9.80;99.90;;;;;;6243086;23;20004;-74
2023/04/21 02:30:27;;;;;;;43.22;31.95;;;9.80;99.90;;;;;;6242309;23;20004;-74
2023/04/21 02:32:52;;;;;;;49.30;35.75;;;9.70;99.90;;;;;;6243003;23;20382;-74
2023/04/21 02:35:18;;;;;;;44.13;32.80;;;9.70;99.90;;;;;;6242473;23;20023;-74
2023/04/21 02:37:43;;;;;;;45.85;32.25;;;9.70;99.90;;;;;;6242488;23;20003;-74
2023/04/21 02:40:09;;;;;;;44.60;32.35;;;9.70;99.90;;;;;;6242819;23;20004;-74
2023/04/21 02:42:35;;;;;;;48.07;34.07;;;9.70;99.90;;;;;;6242547;22;20019;-74
2023/04/21 02:45:00;;;;;;;40.60;30.30;;;9.70;99.90;;;;;;6242829;23;20449;-74
2023/04/21 02:47:26;;;;;;;41.60;30.70;;;9.60;99.90;;;;;;6242419;23;20000;-74
2023/04/21 02:49:51;;;;;;;37.33;29.27;;;9.60;99.90;;;;;;6242904;23;20011;-75
2023/04/21 02:52:17;;;;;;;45.58;32.05;;;9.60;99.90;;;;;;6240265;23;20001;-74
2023/04/21 02:54:42;;;;;;;40.85;31.25;;;9.70;99.90;;;;;;6242839;23;20000;-74
2023/04/21 02:57:08;;;;;;;50.00;35.08;;;9.70;99.90;;;;;;6241368;23;20000;-74
2023/04/21 02:59:34;;;;;;;47.08;33.88;;;9.70;99.90;;;;;;6240772;23;20039;-74
2023/04/21 03:01:59;;;;;;;49.45;34.78;;;9.70;99.90;;;;;;6242941;23;20042;-74
2023/04/21 03:04:25;;;;;;;43.35;32.35;;;9.70;99.90;;;;;;6242051;22;20001;-74
2023/04/21 03:06:52;;;;;;;51.13;36.03;;;9.70;99.90;;;;;;6242181;23;20007;-74
2023/04/21 03:09:17;;;;;;;44.22;34.42;;;9.70;99.90;;;;;;6242323;22;20023;-73
2023/04/21 03:11:43;;;;;;;48.88;36.17;;;9.70;99.90;;;;;;6242758;23;20299;-74
2023/04/21 03:14:08;;;;;;;53.25;37.75;;;9.70;99.90;;;;;;6242535;23;20024;-74
2023/04/21 03:16:34;;;;;;;47.67;36.10;;;9.70;99.90;;;;;;6242307;23;20696;-74
2023/04/21 03:19:00;;;;;;;39.72;33.00;;;9.70;99.90;;;;;;6242692;23;20004;-74
2023/04/21 03:21:25;;;;;;;46.27;34.23;;;9.70;99.90;;;;;;6241619;22;20000;-74
2023/04/21 03:23:52;;;;;;;51.45;37.53;;;9.70;99.90;;;;;;6242824;23;20050;-74
2023/04/21 03:26:17;;;;;;;52.78;36.78;;;9.70;99.90;;;;;;6242016;23;20004;-74
2023/04/21 03:28:43;;;;;;;49.67;36.70;;;9.70;99.90;;;;;;6242474;23;20022;-74
2023/04/21 03:31:08;;;;;;;55.80;38.60;;;9.70;99.90;;;;;;6242485;23;20000;-73
2023/04/21 03:33:34;;;;;;;52.80;38.50;;;9.70;99.90;;;;;;6242213;23;20054;-74
2023/04/21 03:35:59;;;;;;;53.45;36.28;;;9.70;99.90;;;;;;6241552;23;20087;-74
2023/04/21 03:38:27;;;;;;;51.65;35.75;;;9.70;99.90;;;;;;6242067;23;19996;-74
2023/04/21 03:40:53;;;;;;;53.85;39.42;;;9.70;99.90;;;;;;6243136;22;20000;-74
2023/04/21 03:43:18;;;;;;;51.78;37.30;;;9.70;99.90;;;;;;6245528;23;20023;-74
2023/04/21 03:45:44;;;;;;;52.10;37.17;;;9.70;99.90;;;;;;6245147;23;20756;-74
2023/04/21 03:48:09;;;;;;;56.22;39.42;;;9.70;99.90;;;;;;6243244;23;20445;-74
2023/04/21 03:50:36;;;;;;;55.63;38.50;;;9.70;99.90;;;;;;6241508;23;20034;-74
2023/04/21 03:53:02;;;;;;;53.58;38.63;;;9.60;99.90;;;;;;6242685;22;20505;-74
2023/04/21 03:55:27;;;;;;;51.92;36.25;;;9.70;99.90;;;;;;6242152;23;20035;-74
2023/04/21 03:57:53;;;;;;;61.20;40.85;;;9.70;99.90;;;;;;6242261;23;20054;-73
2023/04/21 04:00:19;;;;;;;61.60;42.08;;;9.70;99.90;;;;;;6241106;23;20007;-74
2023/04/21 04:02:45;;;;;;;61.10;43.30;;;9.70;99.90;;;;;;6239976;22;20005;-74
2023/04/21 04:05:11;;;;;;;61.83;43.72;;;9.70;99.90;;;;;;6239704;22;20042;-74
2023/04/21 04:07:36;;;;;;;59.20;41.63;;;9.70;99.90;;;;;;6241900;22;19997;-74
2023/04/21 04:10:03;;;;;;;61.10;41.85;;;9.70;99.90;;;;;;6242583;23;20005;-74
2023/04/21 04:12:29;;;;;;;58.30;43.38;;;9.80;99.90;;;;;;6241848;23;20438;-74
2023/04/21 04:14:55;;;;;;;60.42;42.65;;;9.70;99.90;;;;;;6242413;22;20000;-74
2023/04/21 04:17:21;;;;;;;59.78;41.88;;;9.70;99.90;;;;;;6241881;22;20006;-74
2023/04/21 04:19:46;;;;;;;63.70;45.27;;;9.80;99.90;;;;;;6241741;23;20299;-74
2023/04/21 04:22:12;;;;;;;54.45;42.50;;;9.70;99.90;;;;;;6241714;23;20004;-74
2023/04/21 04:24:37;;;;;;;67.60;46.72;;;9.70;99.90;;;;;;6242482;23;20050;-74
2023/04/21 04:27:03;;;;;;;56.00;42.88;;;9.70;99.90;;;;;;6242035;23;20087;-74
2023/04/21 04:29:28;;;;;;;70.30;48.00;;;9.70;99.90;;;;;;6241599;23;20000;-74
2023/04/21 04:31:55;;;;;;;67.40;46.38;;;9.70;99.90;;;;;;6241914;23;20016;-74
2023/04/21 04:34:22;;;;;;;58.63;44.95;;;9.70;99.90;;;;;;6241367;22;20066;-74
2023/04/21 04:36:49;;;;;;;60.63;41.70;;;9.70;99.90;;;;;;6242171;22;20066;-74
2023/04/21 04:39:15;;;;;;;56.05;41.33;;;9.70;99.90;;;;;;6240250;23;20011;-74
2023/04/21 04:41:40;;;;;;;64.47;44.97;;;9.80;99.90;;;;;;6242177;22;20000;-74
2023/04/21 04:44:06;;;;;;;58.47;44.13;;;9.80;99.90;;;;;;6242066;23;20027;-74
2023/04/21 04:46:32;;;;;;;56.83;42.00;;;9.80;99.90;;;;;;6241669;22;20028;-74
2023/04/21 04:49:00;;;;;;;61.33;45.00;;;9.80;99.90;;;;;;6242937;22;20007;-74
2023/04/21 04:51:25;;;;;;;62.28;46.58;;;9.80;99.90;;;;;;6243271;22;20008;-74
2023/04/21 04:53:51;;;;;;;59.88;45.38;;;9.80;99.90;;;;;;6242729;23;20600;-74
2023/04/21 04:56:16;;;;;;;64.65;45.90;;;9.80;99.90;;;;;;6242229;23;20075;-74
2023/04/21 04:58:42;;;;;;;61.95;47.00;;;9.90;99.90;;;;;;6243967;23;20011;-74
2023/04/21 05:01:12;;;;;;;59.30;45.80;;;9.90;99.90;;;;;;6243923;23;20000;-75
2023/04/21 05:03:37;;;;;;;57.97;43.47;;;9.90;99.90;;;;;;6243375;22;20102;-74
2023/04/21 05:06:03;;;;;;;67.50;48.55;;;9.80;99.90;;;;;;6243749;23;20425;-74
2023/04/21 05:08:28;;;;;;;59.65;46.70;;;9.90;99.90;;;;;;6243519;22;20000;-74
2023/04/21 05:10:54;;;;;;;56.03;40.60;;;9.90;99.90;;;;;;6242398;23;20430;-74
2023/04/21 05:13:19;;;;;;;62.58;45.72;;;9.90;99.90;;;;;;6243436;23;20008;-74
2023/04/21 05:15:45;;;;;;;65.78;46.47;;;9.90;99.90;;;;;;6242146;23;20046;-75
2023/04/21 05:18:10;;;;;;;65.80;49.13;;;9.90;99.90;;;;;;6242968;23;20079;-74
2023/04/21 05:20:40;;;;;;;64.22;47.22;;;10.00;99.90;;;;;;6243644;23;20008;-74
2023/04/21 05:23:06;;;;;;;57.47;45.58;;;10.00;99.90;;;;;;6243774;22;20078;-74
2023/04/21 05:25:31;;;;;;;56.88;42.65;;;10.00;99.90;;;;;;6243174;22;20369;-74
2023/04/21 05:27:57;;;;;;;55.83;43.95;;;10.00;99.90;;;;;;6243798;23;20015;-74
2023/04/21 05:30:22;;;;;;;58.72;45.22;;;10.00;99.90;;;;;;6242405;23;20004;-74
2023/04/21 05:32:48;;;;;;;58.63;45.65;;;10.00;99.90;;;;;;6243553;23;20008;-74
2023/04/21 05:35:13;;;;;;;59.75;44.22;;;10.00;99.90;;;;;;6243223;23;20004;-74
2023/04/21 05:37:39;;;;;;;57.47;42.28;;;10.10;99.90;;;;;;6243526;23;20050;-74
2023/04/21 05:40:05;;;;;;;51.53;40.53;;;10.10;99.90;;;;;;6243343;23;20000;-74
2023/04/21 05:42:31;;;;;;;59.58;44.15;;;10.20;99.90;;;;;;6241590;23;20000;-75
2023/04/21 05:44:56;;;;;;;61.83;46.10;;;10.10;99.90;;;;;;6242958;23;20071;-75
2023/04/21 05:47:22;;;;;;;59.38;44.47;;;10.20;99.90;;;;;;6243516;23;19997;-74
2023/04/21 05:49:52;;;;;;;54.03;41.35;;;10.20;99.90;;;;;;6243697;23;20001;-74
2023/04/21 05:52:18;;;;;;;54.10;39.80;;;10.20;99.90;;;;;;6243065;22;20442;-75
2023/04/21 05:54:44;;;;;;;55.63;40.92;;;10.20;99.90;;;;;;6243344;22;20004;-75
2023/04/21 05:57:09;;;;;;;47.78;39.75;;;10.30;99.90;;;;;;6243602;22;20069;-75
2023/04/21 05:59:35;;;;;;;53.67;40.65;;;10.30;99.90;;;;;;6241977;22;20322;-76
2023/04/21 06:02:02;;;;;;;52.13;43.13;;;10.30;99.90;;;;;;6243680;23;20007;-76
2023/04/21 06:04:28;;;;;;;53.58;41.80;;;10.30;99.90;;;;;;6243065;22;20000;-76
2023/04/21 06:06:53;;;;;;;53.35;42.70;;;10.30;99.90;;;;;;6243307;23;20123;-77
2023/04/21 06:09:19;;;;;;;56.10;41.83;;;10.40;99.90;;;;;;6242620;23;20446;-76
2023/04/21 06:11:44;;;;;;;58.92;45.92;;;10.40;99.90;;;;;;6243357;23;20497;-76
2023/04/21 06:14:10;;;;;;;47.80;40.08;;;10.50;99.90;;;;;;6242561;22;20075;-76
2023/04/21 06:16:35;;;;;;;50.28;41.08;;;10.50;99.90;;;;;;6242806;23;20418;-76
2023/04/21 06:19:01;;;;;;;43.08;35.72;;;10.60;99.90;;;;;;6243184;23;20074;-76
2023/04/21 06:21:27;;;;;;;52.58;41.45;;;10.60;99.90;;;;;;6242464;23;20359;-76
2023/04/21 06:23:52;;;;;;;54.75;43.92;;;10.60;99.90;;;;;;6243090;23;20326;-75
2023/04/21 06:26:18;;;;;;;50.10;42.05;;;10.60;99.90;;;;;;6242649;23;20427;-75
2023/04/21 06:28:43;;;;;;;54.03;41.70;;;10.60;99.90;;;;;;6242547;23;20000;-75
2023/04/21 06:31:13;;;;;;;50.65;39.13;;;10.70;99.90;;;;;;6241401;23;20501;-76
2023/04/21 06:33:40;;;;;;;49.83;40.00;;;10.80;99.90;;;;;;6242939;22;20016;-76
2023/04/21 06:36:05;;;;;;;44.65;36.85;;;10.80;99.90;;;;;;6243143;22;20050;-76
2023/04/21 06:38:31;;;;;;;48.30;41.35;;;10.90;99.90;;;;;;6242462;22;20004;-75
2023/04/21 06:40:57;;;;;;;53.40;43.00;;;10.90;99.90;;;;;;6243340;23;20080;-76
2023/04/21 06:43:22;;;;;;;46.58;40.40;;;11.00;99.90;;;;;;6241647;23;20039;-76
2023/04/21 06:45:48;;;;;;;52.40;39.67;;;11.10;99.90;;;;;;6242885;23;20005;-75
2023/04/21 06:48:13;;;;;;;46.30;40.20;;;11.20;99.90;;;;;;6242452;23;20496;-76
2023/04/21 06:50:39;;;;;;;45.20;36.60;;;11.20;99.90;;;;;;6242900;23;20032;-75
2023/04/21 06:53:04;;;;;;;47.30;38.95;;;11.30;99.90;;;;;;6242641;23;20020;-75
2023/04/21 06:55:30;;;;;;;49.03;38.17;;;11.40;99.90;;;;;;6242625;22;20080;-75
2023/04/21 06:57:56;;;;;;;45.28;38.03;;;11.40;99.90;;;;;;6242427;23;20441;-75
2023/04/21 07:00:21;;;;;;;47.88;39.63;;;11.40;99.90;;;;;;6242389;23;20008;-76
2023/04/21 07:02:47;;;;;;;45.92;39.40;;;11.40;99.90;;;;;;6243052;23;20004;-75
2023/04/21 07:05:12;;;;;;;49.17;39.08;;;11.30;99.90;;;;;;6241194;23;20011;-75
2023/04/21 07:07:38;;;;;;;48.08;39.55;;;11.40;99.90;;;;;;6241898;23;20000;-75
2023/04/21 07:10:04;;;;;;;46.55;39.70;;;11.40;99.90;;;;;;6242297;23;20000;-75
2023/04/21 07:12:29;;;;;;;50.10;40.17;;;11.40;99.90;;;;;;6239328;23;20139;-75
2023/04/21 07:14:55;;;;;;;47.75;41.10;;;11.50;99.90;;;;;;6242277;23;20008;-75
2023/04/21 07:17:20;;;;;;;49.10;39.38;;;11.60;99.90;;;;;;6241583;23;20007;-75
2023/04/21 07:19:46;;;;;;;44.50;39.63;;;11.70;99.90;;;;;;6241877;23;20007;-76
2023/04/21 07:22:11;;;;;;;44.22;38.55;;;11.90;99.90;;;;;;6241607;23;20011;-75
2023/04/21 07:24:38;;;;;;;43.85;38.78;;;12.00;99.90;;;;;;6242098;23;20000;-74
2023/04/21 07:27:03;;;;;;;46.88;40.40;;;12.10;99.90;;;;;;6241191;22;20011;-75
2023/04/21 07:29:29;;;;;;;42.13;37.60;;;12.10;99.90;;;;;;6241548;23;19996;-76
2023/04/21 07:31:55;;;;;;;46.70;39.78;;;12.20;99.90;;;;;;6240166;23;20016;-76
2023/04/21 07:34:21;;;;;;;42.17;37.60;;;12.30;99.90;;;;;;6241178;22;19996;-77
2023/04/21 07:36:46;;;;;;;45.70;39.83;;;12.30;99.90;;;;;;6241813;22;20011;-75
2023/04/21 07:39:12;;;;;;;43.88;39.15;;;12.30;99.90;;;;;;6241516;23;20035;-75
2023/04/21 07:41:38;;;;;;;38.30;34.15;;;12.40;99.90;;;;;;6241418;22;20050;-76
2023/04/21 07:44:03;;;;;;;43.03;38.33;;;12.40;99.90;;;;;;6241912;23;20000;-75
2023/04/21 07:46:30;;;;;;;39.58;35.38;;;12.60;99.90;;;;;;6241118;23;20004;-75
2023/04/21 07:48:57;;;;;;;45.13;37.33;;;12.60;99.90;;;;;;6241675;22;20070;-76
2023/04/21 07:51:23;;;;;;;42.45;37.75;;;12.60;99.90;;;;;;6241147;22;20030;-76
2023/04/21 07:53:51;;;;;;;40.40;35.38;;;12.60;99.90;;;;;;6241929;22;20079;-75
2023/04/21 07:56:16;;;;;;;42.00;37.40;;;12.60;99.90;;;;;;6240909;22;20000;-74
2023/04/21 07:58:42;;;;;;;41.83;37.28;;;12.60;99.90;;;;;;6241811;23;20031;-77
2023/04/21 08:01:07;;;;;;;43.47;38.63;;;12.70;99.90;;;;;;6241870;23;20080;-76
2023/04/21 08:03:33;;;;;;;42.95;37.33;;;12.80;99.90;;;;;;6242368;22;20056;-76
2023/04/21 08:05:58;;;;;;;43.58;38.15;;;12.90;99.90;;;;;;6244640;23;20004;-77
2023/04/21 08:08:24;;;;;;;41.83;37.45;;;13.10;99.90;;;;;;6242469;23;20032;-76
2023/04/21 08:10:50;;;;;;;44.15;39.40;;;13.20;99.90;;;;;;6240022;23;20008;-76
2023/04/21 08:13:15;;;;;;;43.20;38.40;;;13.30;99.90;;;;;;6242784;23;20617;-77
2023/04/21 08:15:41;;;;;;;37.28;33.33;;;13.50;99.90;;;;;;6245934;22;20014;-77
2023/04/21 08:18:07;;;;;;;39.13;34.45;;;13.60;99.90;;;;;;6246474;23;20031;-77
2023/04/21 08:20:33;;;;;;;41.50;36.97;;;13.60;99.90;;;;;;6243548;22;20051;-77
2023/04/21 08:22:58;;;;;;;42.38;36.20;;;13.70;99.90;;;;;;6243866;23;20000;-77
2023/04/21 08:25:24;;;;;;;46.25;37.47;;;13.70;99.90;;;;;;6241285;23;20337;-77
2023/04/21 08:27:49;;;;;;;41.70;36.85;;;13.80;99.90;;;;;;6244489;23;20294;-78
2023/04/21 08:30:15;;;;;;;39.60;35.40;;;14.00;99.90;;;;;;6242338;23;20072;-78
2023/04/21 08:32:41;;;;;;;40.03;35.70;;;14.10;99.90;;;;;;6243880;23;20031;-78
2023/04/21 08:35:07;;;;;;;39.47;35.50;;;14.30;99.90;;;;;;6244066;23;19992;-78
2023/04/21 08:37:36;;;;;;;40.50;35.80;;;14.30;99.90;;;;;;6243694;22;20000;-78
2023/04/21 08:40:03;;;;;;;40.17;35.95;;;14.30;99.90;;;;;;6243848;22;19996;-78
2023/04/21 08:42:29;;;;;;;41.28;37.05;;;14.10;99.90;;;;;;6244125;22;20067;-78
2023/04/21 08:44:54;;;;;;;41.60;37.15;;;14.10;99.90;;;;;;6244038;22;20000;-78
2023/04/21 08:47:22;;;;;;;41.65;37.25;;;14.10;99.90;;;;;;6243310;23;20005;-78
2023/04/21 08:49:50;;;;;;;39.22;35.38;;;14.00;99.90;;;;;;6242181;23;20081;-78
2023/04/21 08:52:16;;;;;;;39.40;35.20;;;14.10;99.90;;;;;;6243638;22;20000;-78
2023/04/21 08:54:42;;;;;;;39.70;35.22;;;14.20;99.90;;;;;;6243296;22;20385;-78
2023/04/21 08:57:07;;;;;;;39.17;35.17;;;14.30;99.90;;;;;;6244231;23;20000;-78
2023/04/21 08:59:33;;;;;;;38.70;34.67;;;14.40;99.90;;;;;;6242032;23;20027;-79
2023/04/21 09:02:17;;;;;;;41.30;36.90;;;14.40;99.90;;;;;;6242246;23;20054;-78
2023/04/21 09:04:46;;;;;;;;;;;14.30;99.90;;;;;;6244377;22;20000;-78
2023/04/21 09:07:32;;;;;;;38.22;34.03;;;14.30;99.90;;;;;;6243346;22;19952;-78
2023/04/21 09:10:01;;;;;;;38.17;34.13;;;14.50;99.90;;;;;;6243561;22;20000;-78
2023/04/21 09:12:28;;;;;;;37.70;33.78;;;14.50;99.90;;;;;;6243203;23;20007;-78
2023/04/21 09:14:54;;;;;;;38.40;34.35;;;14.50;99.90;;;;;;6241946;23;20516;-78
2023/04/21 09:17:26;;;;;;;37.80;33.88;;;14.50;99.90;;;;;;6243298;22;20028;-78
2023/04/21 09:19:51;;;;;;;36.80;32.20;;;14.60;99.90;;;;;;6243976;22;20001;-77
2023/04/21 09:22:17;;;;;;;37.08;33.25;;;14.60;99.90;;;;;;6242731;23;20003;-77
2023/04/21 09:24:55;;;;;;;38.72;33.40;;;14.60;99.90;;;;;;6243757;22;20442;-78
2023/04/21 09:27:21;;;;;;;37.20;33.50;;;14.70;99.90;;;;;;6243204;22;20008;-78
2023/04/21 09:29:47;;;;;;;39.67;35.38;;;14.70;99.90;;;;;;6243452;23;20436;-79
2023/04/21 09:32:19;;;;;;;39.17;35.03;;;14.70;99.90;;;;;;6241168;23;20031;-82
2023/04/21 09:34:45;;;;;;;40.10;35.53;;;14.90;99.90;;;;;;6243673;22;20074;-78
2023/04/21 09:37:12;;;;;;;39.17;34.80;;;15.00;99.90;;;;;;6242623;22;20000;-78
2023/04/21 09:39:37;;;;;;;36.83;32.85;;;15.20;99.90;;;;;;6241313;22;20466;-78
2023/04/21 09:42:03;;;;;;;35.58;31.73;;;15.20;99.90;;;;;;6240949;23;20026;-78
2023/04/21 09:44:29;;;;;;;36.72;33.03;;;15.30;99.90;;;;;;6242724;22;19996;-78
2023/04/21 09:47:01;;;;;;;38.75;34.65;;;15.30;99.90;;;;;;6243390;22;20028;-78
2023/04/21 09:49:29;;;;;;;37.88;33.95;;;15.20;99.90;;;;;;6242249;22;20426;-78
2023/04/21 09:51:57;;;;;;;38.33;34.35;;;15.20;99.90;;;;;;6242586;22;20000;-78
2023/04/21 09:54:29;;;;;;;38.20;34.22;;;15.10;99.90;;;;;;6241985;22;20004;-78
2023/04/21 09:56:58;;;;;;;40.33;33.85;;;15.20;99.90;;;;;;6242308;22;20027;-78
2023/04/21 09:59:39;;;;;;;40.97;36.63;;;15.40;99.90;;;;;;6240767;22;20014;-78
2023/04/21 10:02:06;;;;;;;38.15;34.30;;;15.60;99.90;;;;;;6241355;22;20007;-78
2023/04/21 10:04:33;;;;;;;36.92;33.30;;;15.50;99.90;;;;;;6240864;22;20326;-78
2023/04/21 10:07:00;;;;;;;39.42;35.15;;;15.40;99.90;;;;;;6241545;22;20004;-78
2023/04/21 10:09:32;;;;;;;39.10;35.40;;;15.40;99.90;;;;;;6242317;23;20420;-78
2023/04/21 10:12:01;;;;;;;37.40;33.50;;;15.50;99.90;;;;;;6243133;22;20000;-78
2023/04/21 10:14:27;;;;;;;37.45;33.75;;;15.50;99.90;;;;;;6240681;23;20484;-78
2023/04/21 10:17:11;;;;;;;34.88;31.42;;;15.60;99.90;;;;;;6242824;23;20004;-78
2023/04/21 10:19:46;;;;;;;36.08;32.28;;;15.70;99.90;;;;;;6243318;23;20376;-78
2023/04/21 10:22:11;;;;;;;36.80;33.25;;;15.70;99.90;;;;;;6249979;22;20004;-78
2023/04/21 10:24:42;;;;;;;36.85;33.25;;;15.70;99.90;;;;;;6251151;23;20079;-78
2023/04/21 10:27:11;;;;;;;38.85;35.05;;;15.80;99.90;;;;;;6243133;22;20058;-78
2023/04/21 10:29:37;;;;;;;37.20;33.53;;;15.80;99.90;;;;;;6242686;22;20023;-78
2023/04/21 10:32:03;;;;;;;32.85;29.60;;;15.80;99.90;;;;;;6251334;22;20457;-77
2023/04/21 10:34:38;;;;;;;34.95;31.35;;;15.90;99.90;;;;;;6252308;22;20035;-78
2023/04/21 10:37:04;;;;;;;34.83;31.23;;;15.80;99.90;;;;;;6243088;23;20377;-78
2023/04/21 10:39:35;;;;;;;37.97;34.10;;;15.80;99.90;;;;;;6243355;23;20004;-78
2023/04/21 10:42:16;;;;;;;34.47;30.98;;;15.70;99.90;;;;;;6243011;22;20001;-78
2023/04/21 10:44:43;;;;;;;36.28;32.58;;;15.60;99.90;;;;;;6242521;22;20071;-78
2023/04/21 10:47:08;;;;;;;35.55;31.92;;;15.70;99.90;;;;;;6242406;22;20004;-80
2023/04/21 10:49:38;;;;;;;34.45;31.10;;;15.80;99.90;;;;;;6241995;23;20027;-77
2023/04/21 10:52:09;;;;;;;34.65;31.02;;;15.80;99.90;;;;;;6242816;22;20004;-78
2023/04/21 10:54:45;;;;;;;34.03;30.70;;;15.80;99.90;;;;;;6242377;22;20457;-78
2023/04/21 10:57:13;;;;;;;37.05;33.15;;;15.80;99.90;;;;;;6242386;23;20008;-78
2023/04/21 10:59:39;;;;;;;32.78;29.65;;;15.80;99.90;;;;;;6242010;22;20085;-78
2023/04/21 11:02:06;;;;;;;34.08;30.80;;;15.90;99.90;;;;;;6241005;23;20004;-78
2023/04/21 11:04:32;;;;;;;33.08;29.67;;;16.20;99.90;;;;;;6240393;23;20008;-77
2023/04/21 11:07:15;;;;;;;32.67;29.30;;;16.40;99.90;;;;;;6242439;23;20059;-77
2023/04/21 11:09:42;;;;;;;34.35;30.98;;;16.40;99.90;;;;;;6242349;22;20008;-78
2023/04/21 11:12:10;;;;;;;33.80;27.60;;;16.30;99.90;;;;;;6240744;23;20038;-78
2023/04/21 11:14:38;;;;;;;33.03;29.65;;;16.30;99.90;;;;;;6242310;22;20001;-78
2023/04/21 11:17:05;;;;;;;32.70;29.20;;;16.20;99.90;;;;;;6242838;22;20004;-78
2023/04/21 11:19:33;;;;;;;34.20;30.60;;;16.20;99.90;;;;;;6241695;22;20008;-77
2023/04/21 11:21:59;;;;;;;34.60;31.10;;;16.30;99.90;;;;;;6240730;23;20004;-78
2023/04/21 11:24:25;;;;;;;32.55;29.13;;;16.40;99.90;;;;;;6241903;22;20007;-80
2023/04/21 11:26:50;;;;;;;32.63;29.45;;;16.40;99.90;;;;;;6242656;23;20046;-78
2023/04/21 11:29:16;;;;;;;31.48;28.38;;;16.60;99.90;;;;;;6242202;23;19996;-78
2023/04/21 11:31:44;;;;;;;32.05;28.77;;;16.80;99.90;;;;;;6242082;22;20038;-78
2023/04/21 11:34:10;;;;;;;33.13;29.80;;;16.80;99.90;;;;;;6241709;22;20007;-78
2023/04/21 11:36:41;;;;;;;31.70;28.58;;;16.80;99.90;;;;;;6242035;22;20008;-78
2023/04/21 11:39:09;;;;;;;31.77;28.38;;;16.90;99.90;;;;;;6242508;22;20012;-78
2023/04/21 11:41:37;;;;;;;30.77;27.77;;;16.90;99.90;;;;;;6241935;22;20418;-78
2023/04/21 11:44:03;;;;;;;31.55;28.17;;;17.00;99.90;;;;;;6242102;22;20000;-78
2023/04/21 11:46:28;;;;;;;29.13;26.02;;;17.00;99.90;;;;;;6241481;23;20014;-77
2023/04/21 11:49:03;;;;;;;27.80;24.95;;;16.80;99.90;;;;;;6241833;22;20000;-79
2023/04/21 11:51:33;;;;;;;30.63;27.33;;;16.70;99.90;;;;;;6241979;22;20023;-78
2023/04/21 11:53:59;;;;;;;29.90;26.98;;;16.50;99.90;;;;;;6242475;22;20000;-77
2023/04/21 11:56:25;;;;;;;31.17;27.63;;;16.50;99.90;;;;;;6241763;22;20476;-78
2023/04/21 11:58:55;;;;;;;34.20;28.00;;;16.50;99.90;;;;;;6243996;23;20016;-78
2023/04/21 12:01:21;;;;;;;30.45;27.10;;;16.60;99.90;;;;;;6242004;23;20338;-78
2023/04/21 12:03:51;;;;;;;29.67;26.73;;;16.50;99.90;;;;;;6243661;22;20003;-78
2023/04/21 12:06:21;;;;;;;31.05;27.90;;;16.50;99.90;;;;;;6244013;22;20004;-78
2023/04/21 12:08:46;;;;;;;33.22;28.73;;;16.60;99.90;;;;;;6244420;22;20000;-78
2023/04/21 12:11:15;;;;;;;30.75;27.63;;;16.80;99.90;;;;;;6244145;23;20083;-77
2023/04/21 12:13:41;;;;;;;30.00;26.85;;;17.00;99.90;;;;;;6242185;23;20434;-78
2023/04/21 12:16:07;;;;;;;31.02;27.80;;;17.30;99.90;;;;;;6244259;23;20058;-78
2023/04/21 12:18:32;;;;;;;30.40;27.15;;;17.30;99.90;;;;;;6243030;23;19996;-78
2023/04/21 12:21:00;;;;;;;31.17;26.88;;;17.30;99.90;;;;;;6243806;22;20000;-78
2023/04/21 12:23:26;;;;;;;30.92;27.95;;;17.20;99.90;;;;;;6242412;22;20749;-78
2023/04/21 12:25:51;;;;;;;30.00;27.02;;;17.20;99.90;;;;;;6243911;23;20097;-79
2023/04/21 12:28:17;;;;;;;32.63;29.42;;;17.10;99.90;;;;;;6244249;23;20023;-78